createdAt,value
2022-09-12T00:02:08.306Z,100148.56
2022-09-12T00:07:09.869Z,100158.59
2022-09-12T00:12:11.422Z,100159.69
2022-09-12T00:17:12.946Z,100148.81
2022-09-12T00:22:14.485Z,100153.38
2022-09-12T00:27:16.104Z,100151.06
2022-09-12T00:32:17.633Z,100156.72
2022-09-12T00:37:19.166Z,100163.41
2022-09-12T00:42:20.705Z,100173.44
2022-09-12T00:47:32.789Z,100176.34
2022-09-12T00:52:42.454Z,100175.69
2022-09-12T00:57:52.254Z,100177.66
2022-09-12T01:02:58.944Z,100172.41
2022-09-12T01:08:03.240Z,100174.84
2022-09-12T01:13:07.249Z,100180.28
2022-09-12T01:18:19.067Z,100183.22
2022-09-12T01:23:57.304Z,100179.66
2022-09-12T01:29:08.064Z,100177.91
2022-09-12T01:34:09.538Z,100180.38
2022-09-12T01:39:25.988Z,100182.41
2022-09-12T01:44:36.281Z,100183.81
2022-09-12T01:49:52.211Z,100169.28
2022-09-12T01:55:01.626Z,100175.53
2022-09-12T02:00:09.915Z,100177.78
2022-09-12T02:05:18.206Z,100178.13
2022-09-12T02:10:27.134Z,100171.28
2022-09-12T02:15:37.869Z,100186.75
2022-09-12T02:20:49.197Z,100178.44
2022-09-12T02:25:56.147Z,100166.75
2022-09-12T02:31:09.653Z,100172.19
2022-09-12T02:36:15.444Z,100172.91
2022-09-12T02:41:20.660Z,100171.28
2022-09-12T02:46:30.976Z,100167.84
2022-09-12T02:51:33.086Z,100182.97
2022-09-12T02:56:35.410Z,100174.72
2022-09-12T03:01:39.664Z,100177.59
2022-09-12T03:06:55.450Z,100194.16
2022-09-12T03:12:02.645Z,100192.88
2022-09-12T03:17:39.800Z,100185.38
2022-09-12T03:22:53.767Z,100180.47
2022-09-12T03:28:07.383Z,100183.47
2022-09-12T03:33:16.684Z,100178.22
2022-09-12T03:38:19.225Z,100176.63
2022-09-12T03:43:20.881Z,100178.13
2022-09-12T03:48:22.472Z,100175.22
2022-09-12T03:53:24.018Z,100187.31
2022-09-12T03:58:30.653Z,100190.03
2022-09-12T04:03:32.175Z,100194.50
2022-09-12T04:08:35.521Z,100189.06
2022-09-12T04:13:38.272Z,100193.47
2022-09-12T04:18:40.257Z,100201.88
2022-09-12T04:23:42.579Z,100197.06
2022-09-12T04:28:45.073Z,100195.91
2022-09-12T04:33:46.973Z,100207.06
2022-09-12T04:38:48.603Z,100204.34
2022-09-12T04:44:02.388Z,100205.88
2022-09-12T04:49:04.378Z,100209.31
2022-09-12T04:54:09.376Z,100201.63
2022-09-12T04:59:12.130Z,100209.56
2022-09-12T05:04:13.859Z,100209.88
2022-09-12T05:09:16.553Z,100214.75
2022-09-12T05:14:18.086Z,100223.03
2022-09-12T05:19:19.634Z,100221.88
2022-09-12T05:24:21.163Z,100230.47
2022-09-12T05:29:22.900Z,100236.47
2022-09-12T05:34:24.635Z,100238.19
2022-09-12T05:39:26.207Z,100242.13
2022-09-12T05:44:28.274Z,100245.16
2022-09-12T05:49:30.287Z,100240.63
2022-09-12T05:54:31.912Z,100255.75
2022-09-12T05:59:33.467Z,100258.28
2022-09-12T06:04:34.986Z,100254.19
2022-09-12T06:09:36.560Z,100261.25
2022-09-12T06:14:38.938Z,100254.81
2022-09-12T06:19:40.474Z,100246.94
2022-09-12T06:24:42.117Z,100249.13
2022-09-12T06:29:43.688Z,100248.41
2022-09-12T06:34:47.695Z,100252.56
2022-09-12T06:39:49.332Z,100261.91
2022-09-12T06:44:50.979Z,100253.19
2022-09-12T06:49:52.516Z,100248.22
2022-09-12T06:54:54.046Z,100252.72
2022-09-12T06:59:55.587Z,100246.47
2022-09-12T07:04:57.100Z,100248.63
2022-09-12T07:09:58.675Z,100251.63
2022-09-12T07:15:01.117Z,100253.41
2022-09-12T07:20:02.973Z,100256.16
2022-09-12T07:25:05.175Z,100255.97
2022-09-12T07:30:07.875Z,100259.38
2022-09-12T07:35:09.472Z,100276.03
2022-09-12T07:40:11.196Z,100270.09
2022-09-12T07:45:13.390Z,100278.97
2022-09-12T07:50:15.672Z,100288.25
2022-09-12T07:55:17.314Z,100287.84
2022-09-12T08:00:19.335Z,100296.41
2022-09-12T08:05:21.006Z,100289.78
2022-09-12T08:10:22.548Z,100282.16
2022-09-12T08:15:25.194Z,100284.56
2022-09-12T08:20:28.460Z,100286.94
2022-09-12T08:25:30.468Z,100290.72
2022-09-12T08:30:32.075Z,100284.53
2022-09-12T08:35:33.644Z,100292.72
2022-09-12T08:40:51.379Z,100287.03
2022-09-12T08:46:08.672Z,100282.06
2022-09-12T08:51:14.174Z,100277.00
2022-09-12T08:56:16.799Z,100286.22
2022-09-12T09:01:18.336Z,100290.25
2022-09-12T09:06:38.453Z,100282.25
2022-09-12T09:11:42.742Z,100283.97
2022-09-12T09:16:46.804Z,100288.03
2022-09-12T09:21:54.580Z,100285.03
2022-09-12T09:27:23.498Z,100299.59
2022-09-12T09:32:41.133Z,100293.47
2022-09-12T09:37:56.761Z,100292.09
2022-09-12T09:43:24.528Z,100290.22
2022-09-12T09:48:30.855Z,100288.69
2022-09-12T09:53:46.329Z,100283.19
2022-09-12T09:58:48.033Z,100280.41
2022-09-12T10:03:51.285Z,100276.94
2022-09-12T10:09:17.526Z,100280.78
2022-09-12T10:14:38.000Z,100274.53
2022-09-12T10:19:40.447Z,100275.75
2022-09-12T10:24:47.303Z,100276.16
2022-09-12T10:30:17.880Z,100277.25
2022-09-12T10:35:25.940Z,100263.22
2022-09-12T10:40:31.720Z,100273.03
2022-09-12T10:45:36.399Z,100270.69
2022-09-12T10:50:43.842Z,100262.56
2022-09-12T10:56:18.450Z,100263.56
2022-09-12T11:01:36.402Z,100263.63
2022-09-12T11:07:15.229Z,100262.16
2022-09-12T11:12:25.965Z,100274.41
2022-09-12T11:17:42.449Z,100267.41
2022-09-12T11:23:08.056Z,100265.81
2022-09-12T11:28:21.826Z,100258.56
2022-09-12T11:33:44.131Z,100256.94
2022-09-12T11:39:02.231Z,100246.47
2022-09-12T11:44:19.039Z,100252.09
2022-09-12T11:49:36.845Z,100244.19
2022-09-12T11:55:03.881Z,100240.75
2022-09-12T12:00:08.780Z,100247.25
2022-09-12T12:05:37.316Z,100250.91
2022-09-12T12:10:40.929Z,100249.59
2022-09-12T12:15:52.866Z,100247.94
2022-09-12T12:20:56.078Z,100250.56
2022-09-12T12:26:03.541Z,100247.59
2022-09-12T12:31:05.515Z,100258.56
2022-09-12T12:36:28.908Z,100249.78
2022-09-12T12:41:36.202Z,100243.34
2022-09-12T12:46:38.682Z,100240.06
2022-09-12T12:51:43.077Z,100233.28
2022-09-12T12:56:44.693Z,100244.75
2022-09-12T13:01:55.310Z,100237.56
2022-09-12T13:07:07.170Z,100239.25
2022-09-12T13:12:17.521Z,100225.88
2022-09-12T13:17:31.472Z,100220.22
2022-09-12T13:22:47.759Z,100214.69
2022-09-12T13:28:18.475Z,100220.44
2022-09-12T13:33:29.186Z,100217.31
2022-09-12T13:38:55.549Z,100220.06
2022-09-12T13:43:57.278Z,100220.06
2022-09-12T13:49:01.157Z,100207.94
2022-09-12T13:54:05.409Z,100206.75
2022-09-12T13:59:12.417Z,100201.94
2022-09-12T14:04:36.804Z,100199.19
2022-09-12T14:09:41.515Z,100196.06
2022-09-12T14:14:43.955Z,100198.13
2022-09-12T14:19:46.691Z,100194.78
2022-09-12T14:24:52.575Z,100193.78
2022-09-12T14:30:02.304Z,100181.03
2022-09-12T14:35:18.236Z,100184.91
2022-09-12T14:40:22.441Z,100185.63
2022-09-12T14:45:27.204Z,100193.06
2022-09-12T14:50:35.355Z,100190.50
2022-09-12T14:55:44.974Z,100194.06
2022-09-12T15:00:58.557Z,100195.13
2022-09-12T15:06:03.129Z,100182.81
2022-09-12T15:11:06.642Z,100179.09
2022-09-12T15:16:11.728Z,100171.13
2022-09-12T15:21:17.475Z,100187.50
2022-09-12T15:26:24.066Z,100188.31
2022-09-12T15:31:31.243Z,100182.47
2022-09-12T15:36:33.307Z,100183.69
2022-09-12T15:41:37.129Z,100183.69
2022-09-12T15:46:39.142Z,100177.38
2022-09-12T15:51:40.800Z,100184.53
2022-09-12T15:56:42.571Z,100190.84
2022-09-12T16:01:44.131Z,100190.41
2022-09-12T16:06:45.733Z,100189.44
2022-09-12T16:11:47.731Z,100182.28
2022-09-12T16:16:54.330Z,100177.84
2022-09-12T16:21:55.911Z,100174.63
2022-09-12T16:27:01.161Z,100179.25
2022-09-12T16:32:03.392Z,100167.66
2022-09-12T16:37:05.677Z,100167.69
2022-09-12T16:42:07.347Z,100165.47
2022-09-12T16:47:08.872Z,100170.91
2022-09-12T16:52:10.955Z,100157.44
2022-09-12T16:57:12.529Z,100158.44
2022-09-12T17:02:14.995Z,100158.94
2022-09-12T17:07:16.595Z,100154.00
2022-09-12T17:12:18.122Z,100151.56
2022-09-12T17:17:19.745Z,100152.56
2022-09-12T17:22:21.331Z,100147.25
2022-09-12T17:27:22.860Z,100152.84
2022-09-12T17:32:24.525Z,100146.31
2022-09-12T17:37:26.061Z,100170.84
2022-09-12T17:42:27.619Z,100166.53
2022-09-12T17:47:29.188Z,100163.94
2022-09-12T17:52:31.101Z,100165.59
2022-09-12T17:57:32.615Z,100168.44
2022-09-12T18:02:35.118Z,100171.97
2022-09-12T18:07:38.968Z,100171.25
2022-09-12T18:12:43.731Z,100179.88
2022-09-12T18:17:45.256Z,100178.97
2022-09-12T18:22:49.781Z,100177.06
2022-09-12T18:27:51.651Z,100185.00
2022-09-12T18:32:53.192Z,100183.88
2022-09-12T18:37:55.117Z,100185.41
2022-09-12T18:42:56.700Z,100175.13
2022-09-12T18:47:58.253Z,100174.88
2022-09-12T18:53:00.133Z,100176.22
2022-09-12T18:58:01.758Z,100165.63
2022-09-12T19:03:03.289Z,100174.75
2022-09-12T19:08:05.130Z,100169.91
2022-09-12T19:13:07.012Z,100167.81
2022-09-12T19:18:09.562Z,100171.16
2022-09-12T19:23:11.120Z,100180.66
2022-09-12T19:28:12.637Z,100171.22
2022-09-12T19:33:14.275Z,100172.69
2022-09-12T19:38:16.691Z,100170.59
2022-09-12T19:43:18.207Z,100164.91
2022-09-12T19:48:20.254Z,100158.22
2022-09-12T19:53:21.827Z,100152.22
2022-09-12T19:58:23.474Z,100157.13
2022-09-12T20:03:25.080Z,100151.97
2022-09-12T20:08:26.980Z,100144.97
2022-09-12T20:13:28.699Z,100137.25
2022-09-12T20:18:30.235Z,100144.53
2022-09-12T20:23:31.797Z,100138.84
2022-09-12T20:28:33.404Z,100144.59
2022-09-12T20:33:35.048Z,100137.75
2022-09-12T20:38:36.713Z,100141.38
2022-09-12T20:43:39.773Z,100133.22
2022-09-12T20:48:41.295Z,100136.25
2022-09-12T20:53:42.816Z,100137.25
2022-09-12T20:58:44.931Z,100128.38
2022-09-12T21:03:47.046Z,100130.00
2022-09-12T21:08:49.833Z,100127.88
2022-09-12T21:13:52.292Z,100139.34
2022-09-12T21:18:59.677Z,100139.06
2022-09-12T21:24:02.922Z,100131.69
2022-09-12T21:29:04.513Z,100136.41
2022-09-12T21:34:06.059Z,100132.09
2022-09-12T21:39:07.649Z,100128.44
2022-09-12T21:44:09.184Z,100128.88
2022-09-12T21:49:10.841Z,100134.31
2022-09-12T21:54:12.451Z,100132.19
2022-09-12T21:59:14.083Z,100128.75
2022-09-12T22:04:15.666Z,100124.38
2022-09-12T22:09:17.429Z,100110.91
2022-09-12T22:14:19.073Z,100114.34
2022-09-12T22:19:20.801Z,100119.78
2022-09-12T22:24:28.050Z,100117.78
2022-09-12T22:29:29.600Z,100117.38
2022-09-12T22:34:31.221Z,100105.75
2022-09-12T22:39:32.886Z,100104.03
2022-09-12T22:44:34.420Z,100103.03
2022-09-12T22:49:35.951Z,100107.47
2022-09-12T22:54:37.752Z,100096.78
2022-09-12T22:59:39.582Z,100089.22
2022-09-12T23:04:41.132Z,100085.50
2022-09-12T23:09:42.716Z,100083.63
2022-09-12T23:14:44.254Z,100084.38
2022-09-12T23:19:45.792Z,100075.22
2022-09-12T23:24:47.336Z,100073.78
2022-09-12T23:29:52.388Z,100063.94
2022-09-12T23:34:54.060Z,100057.66
2022-09-12T23:39:55.884Z,100048.81
2022-09-12T23:44:57.523Z,100054.53
2022-09-12T23:49:59.093Z,100051.94
2022-09-12T23:55:00.654Z,100045.69
